Time;durP1;ratioP1;P1;durP2;ratioP2;P2;SDS_P1;SDS_P2;PMS_P1;PMS_P2;Temp;Humidity;BMP_temperature;BMP_pressure;BME280_temperature;BME280_humidity;BME280_pressure;Samples;Min_cycle;Max_cycle;Signal;HPM_P1;HPM_P2
2022/11/03 00:01:11;;;;;;;4.83;2.70;;;6.60;98.00;;;;;;5013411;28;20474;-87
2022/11/03 00:03:39;;;;;;;3.23;2.30;;;6.70;98.00;;;;;;5012713;28;20461;-87
2022/11/03 00:06:07;;;;;;;2.97;2.20;;;6.80;98.00;;;;;;5013434;28;20458;-87
2022/11/03 00:08:38;;;;;;;7.47;2.50;;;6.70;98.00;;;;;;5013085;28;20488;-87
2022/11/03 00:11:07;;;;;;;4.13;2.60;;;6.70;98.00;;;;;;5013022;28;20468;-87
2022/11/03 00:13:35;;;;;;;6.00;2.40;;;6.60;98.00;;;;;;5012358;28;21035;-88
2022/11/03 00:16:03;;;;;;;2.93;2.23;;;6.60;98.00;;;;;;5013320;28;20498;-87
2022/11/03 00:18:30;;;;;;;3.03;2.37;;;6.50;98.00;;;;;;5012787;28;20494;-87
2022/11/03 00:20:59;;;;;;;3.03;2.63;;;6.50;98.00;;;;;;5013027;28;20469;-87
2022/11/03 00:23:28;;;;;;;3.57;2.23;;;6.50;98.00;;;;;;5012356;28;20464;-87
2022/11/03 00:26:03;;;;;;;4.20;3.00;;;6.50;98.00;;;;;;5012997;28;20460;-87
2022/11/03 00:28:32;;;;;;;7.37;2.90;;;6.60;98.00;;;;;;5012839;28;20484;-87
2022/11/03 00:31:00;;;;;;;3.00;2.20;;;6.60;98.00;;;;;;5013159;28;20958;-87
2022/11/03 00:33:30;;;;;;;4.20;2.63;;;6.50;98.00;;;;;;5012600;28;20482;-87
2022/11/03 00:35:58;;;;;;;2.63;2.33;;;6.50;98.00;;;;;;5013030;28;20463;-87
2022/11/03 00:38:25;;;;;;;7.00;2.93;;;6.50;98.00;;;;;;5013252;28;20534;-88
2022/11/03 00:40:59;;;;;;;5.77;2.73;;;6.50;98.00;;;;;;5013011;28;20581;-87
2022/11/03 00:43:27;;;;;;;7.00;2.90;;;6.50;98.00;;;;;;5012370;28;20447;-87
2022/11/03 00:45:54;;;;;;;8.27;3.27;;;6.40;98.00;;;;;;5012172;28;20872;-87
2022/11/03 00:48:31;;;;;;;6.03;2.90;;;6.30;98.00;;;;;;5012522;28;20489;-87
2022/11/03 00:51:04;;;;;;;4.30;2.40;;;6.20;98.00;;;;;;5013103;28;20465;-87
2022/11/03 00:53:31;;;;;;;3.33;2.37;;;6.30;98.00;;;;;;5011968;28;20474;-87
2022/11/03 00:56:01;;;;;;;6.53;2.50;;;6.30;98.00;;;;;;5015873;28;20459;-87
2022/11/03 00:58:28;;;;;;;20.67;2.43;;;6.20;98.00;;;;;;5016986;28;20821;-87
2022/11/03 01:01:03;;;;;;;3.13;2.20;;;6.20;98.00;;;;;;5016831;28;20471;-87
2022/11/03 01:03:31;;;;;;;3.20;2.40;;;6.20;98.00;;;;;;5015698;28;20461;-87
2022/11/03 01:08:43;;;;;;;3.80;2.20;;;6.60;98.00;;;;;;5016746;28;20467;-88
2022/11/03 01:14:01;;;;;;;2.53;2.10;;;6.60;98.00;;;;;;5015690;28;20632;-87
2022/11/03 01:16:36;;;;;;;3.30;2.53;;;6.60;98.00;;;;;;5016287;28;20537;-87
2022/11/03 01:19:04;;;;;;;5.00;2.83;;;6.50;98.00;;;;;;5016437;28;20475;-87
2022/11/03 01:21:31;;;;;;;4.60;2.60;;;6.30;98.00;;;;;;5015949;28;20467;-87
2022/11/03 01:24:00;;;;;;;4.40;2.47;;;6.10;98.00;;;;;;5015436;28;20465;-87
2022/11/03 01:26:29;;;;;;;3.20;2.40;;;6.10;98.00;;;;;;5016747;28;20501;-87
2022/11/03 01:28:58;;;;;;;4.53;2.70;;;6.00;98.00;;;;;;5016380;28;20485;-87
2022/11/03 01:31:26;;;;;;;2.50;1.90;;;6.00;98.00;;;;;;5015881;28;20471;-87
2022/11/03 01:33:55;;;;;;;5.10;2.50;;;5.90;98.00;;;;;;5015514;28;20874;-87
2022/11/03 01:36:24;;;;;;;3.47;2.30;;;5.80;98.00;;;;;;5016275;28;20818;-87
2022/11/03 01:38:53;;;;;;;3.07;2.67;;;5.70;98.00;;;;;;5015790;28;20502;-87
2022/11/03 01:41:23;;;;;;;2.40;2.20;;;5.90;98.00;;;;;;5015469;28;20450;-87
2022/11/03 01:44:20;;;;;;;7.17;2.90;;;5.90;98.00;;;;;;5015715;28;20448;-87
2022/11/03 01:46:51;;;;;;;3.23;2.40;;;6.00;98.00;;;;;;5013097;28;20469;-87
2022/11/03 01:49:23;;;;;;;5.77;2.70;;;5.80;98.00;;;;;;5015425;28;20451;-87
2022/11/03 01:51:55;;;;;;;7.43;3.00;;;5.70;98.00;;;;;;5016008;28;20506;-87
2022/11/03 01:54:26;;;;;;;2.77;2.13;;;5.90;98.00;;;;;;5015087;28;20491;-87
2022/11/03 01:56:54;;;;;;;7.73;2.90;;;5.80;98.00;;;;;;5015329;28;20845;-87
2022/11/03 01:59:24;;;;;;;4.13;2.23;;;5.90;98.00;;;;;;5015936;28;20449;-87
2022/11/03 02:01:51;;;;;;;6.90;3.10;;;5.90;98.00;;;;;;5015973;28;20515;-87
2022/11/03 02:04:22;;;;;;;3.20;2.40;;;5.90;98.00;;;;;;5014305;28;20464;-87
2022/11/03 02:06:58;;;;;;;5.60;3.40;;;5.80;98.00;;;;;;5014667;28;20464;-86
2022/11/03 02:09:26;;;;;;;4.20;2.33;;;5.70;98.00;;;;;;5015554;28;20969;-87
2022/11/03 02:12:08;;;;;;;6.83;3.00;;;5.60;98.00;;;;;;5015543;28;20444;-87
2022/11/03 02:14:40;;;;;;;2.17;1.80;;;5.60;98.00;;;;;;5015231;28;20471;-87
2022/11/03 02:17:09;;;;;;;3.13;2.53;;;5.60;98.00;;;;;;5015381;28;20843;-88
2022/11/03 02:19:41;;;;;;;4.63;2.70;;;5.70;98.00;;;;;;5015046;28;20463;-87
2022/11/03 02:22:29;;;;;;;4.73;2.40;;;5.60;98.00;;;;;;5014272;28;20462;-87
2022/11/03 02:25:05;;;;;;;5.57;2.93;;;5.50;98.00;;;;;;5015012;28;20454;-87
2022/11/03 02:27:33;;;;;;;5.70;3.17;;;5.50;98.00;;;;;;5014838;28;20848;-87
2022/11/03 02:30:00;;;;;;;3.93;2.50;;;5.60;98.00;;;;;;5015266;28;20459;-87
2022/11/03 02:32:33;;;;;;;2.80;2.20;;;5.70;98.00;;;;;;5014916;28;20870;-87
2022/11/03 02:35:05;;;;;;;2.40;2.20;;;5.60;98.00;;;;;;5013332;28;20484;-87
2022/11/03 02:37:36;;;;;;;7.70;3.00;;;5.70;98.00;;;;;;5015193;28;20483;-86
2022/11/03 02:40:07;;;;;;;5.93;2.83;;;5.70;98.00;;;;;;5014970;28;20526;-86
2022/11/03 02:42:39;;;;;;;4.00;2.17;;;5.60;98.00;;;;;;5014850;28;20515;-87
2022/11/03 02:45:11;;;;;;;4.20;1.90;;;5.50;98.00;;;;;;5014529;28;20443;-87
2022/11/03 02:47:40;;;;;;;3.70;2.73;;;5.60;98.00;;;;;;5014785;28;20486;-87
2022/11/03 02:50:09;;;;;;;2.77;2.20;;;5.40;98.00;;;;;;5014763;28;20942;-87
2022/11/03 02:52:41;;;;;;;4.37;2.73;;;5.40;98.00;;;;;;5014555;28;20465;-87
2022/11/03 02:55:18;;;;;;;5.27;3.30;;;5.40;98.00;;;;;;5014536;28;20476;-87
2022/11/03 02:57:53;;;;;;;2.40;1.87;;;5.50;98.00;;;;;;5014483;28;20485;-87
2022/11/03 03:00:21;;;;;;;3.27;2.23;;;5.60;98.00;;;;;;5014721;28;20460;-87
2022/11/03 03:02:58;;;;;;;3.97;2.80;;;5.60;98.00;;;;;;5013720;28;20470;-87
2022/11/03 03:05:30;;;;;;;3.17;2.30;;;5.50;98.00;;;;;;5016608;28;20471;-87
2022/11/03 03:08:02;;;;;;;4.30;2.10;;;5.40;98.00;;;;;;5022731;28;20552;-87
2022/11/03 03:10:33;;;;;;;2.90;2.07;;;5.50;98.00;;;;;;5018553;28;20463;-87
2022/11/03 03:13:03;;;;;;;2.67;1.90;;;5.60;98.00;;;;;;5020132;28;20481;-86
2022/11/03 03:15:41;;;;;;;2.03;1.77;;;5.50;98.00;;;;;;5016784;28;21038;-87
2022/11/03 03:18:16;;;;;;;5.60;2.50;;;5.40;98.00;;;;;;5013672;28;21091;-87
2022/11/03 03:20:52;;;;;;;3.47;2.47;;;5.30;98.00;;;;;;5013973;28;20449;-87
2022/11/03 03:23:23;;;;;;;5.60;2.60;;;5.30;98.00;;;;;;5013872;28;20545;-86
2022/11/03 03:25:58;;;;;;;1.73;1.70;;;5.40;98.00;;;;;;5013649;28;20470;-87
2022/11/03 03:28:33;;;;;;;4.07;2.47;;;5.30;98.00;;;;;;5014034;28;20537;-87
2022/11/03 03:31:03;;;;;;;5.73;1.83;;;5.40;98.00;;;;;;5013562;28;21095;-87
2022/11/03 03:33:32;;;;;;;3.87;2.10;;;5.30;98.00;;;;;;5013155;28;20465;-87
2022/11/03 03:36:01;;;;;;;4.03;2.33;;;5.30;98.00;;;;;;5014136;28;20474;-87
2022/11/03 03:38:32;;;;;;;6.40;2.40;;;5.40;98.00;;;;;;5014263;28;20489;-87
2022/11/03 03:41:01;;;;;;;2.33;1.90;;;5.40;98.00;;;;;;5013853;28;20458;-86
2022/11/03 03:43:32;;;;;;;2.70;2.10;;;5.30;98.00;;;;;;5012784;28;20446;-87
2022/11/03 03:46:04;;;;;;;2.87;1.90;;;5.20;98.00;;;;;;5012956;28;20458;-87
2022/11/03 03:48:31;;;;;;;2.30;1.80;;;5.30;98.00;;;;;;5013795;28;20990;-87
2022/11/03 03:51:00;;;;;;;5.40;2.40;;;5.40;98.00;;;;;;5013796;28;20522;-87
2022/11/03 03:53:30;;;;;;;4.03;1.87;;;5.30;98.00;;;;;;5013339;28;20458;-87
2022/11/03 03:55:58;;;;;;;3.20;2.13;;;5.30;98.00;;;;;;5013944;28;20510;-86
2022/11/03 03:58:27;;;;;;;3.10;2.17;;;5.40;98.00;;;;;;5013577;28;20494;-87
2022/11/03 04:00:55;;;;;;;2.13;1.60;;;5.40;98.00;;;;;;5012747;28;20457;-86
2022/11/03 04:03:33;;;;;;;2.17;1.67;;;5.40;98.00;;;;;;5013081;28;20460;-87
2022/11/03 04:06:01;;;;;;;3.60;1.90;;;5.40;98.00;;;;;;5013721;28;20458;-86
2022/11/03 04:08:28;;;;;;;5.17;2.67;;;5.40;98.00;;;;;;5014042;28;20485;-87
2022/11/03 04:24:40;;;;;;;3.20;2.00;;;5.40;98.00;;;;;;5002883;28;20454;-88
2022/11/03 04:27:34;;;;;;;3.70;2.43;;;5.50;98.00;;;;;;5013380;28;20494;-87
2022/11/03 04:30:10;;;;;;;2.57;1.77;;;5.60;98.00;;;;;;5012639;28;20855;-87
2022/11/03 04:32:39;;;;;;;9.80;2.63;;;5.60;98.00;;;;;;5012723;28;20470;-87
2022/11/03 04:35:16;;;;;;;2.90;2.30;;;5.50;98.00;;;;;;5013266;28;20529;-87
2022/11/03 04:37:43;;;;;;;3.17;2.57;;;5.50;98.00;;;;;;5013568;28;20485;-87
2022/11/03 04:40:14;;;;;;;1.80;1.73;;;5.50;98.00;;;;;;5013694;28;20934;-86
2022/11/03 04:42:42;;;;;;;10.47;2.30;;;5.50;98.00;;;;;;5013069;28;20819;-87
2022/11/03 04:45:20;;;;;;;2.83;2.00;;;5.30;98.00;;;;;;5013256;28;20542;-87
2022/11/03 04:47:49;;;;;;;2.20;1.73;;;5.40;98.00;;;;;;5013180;28;20487;-87
2022/11/03 04:50:19;;;;;;;3.70;2.10;;;5.50;98.00;;;;;;5012891;28;20824;-87
2022/11/03 04:52:47;;;;;;;4.43;1.90;;;5.40;98.00;;;;;;5013015;28;20853;-87
2022/11/03 04:55:17;;;;;;;3.63;2.40;;;5.40;98.00;;;;;;5012901;28;20483;-87
2022/11/03 04:57:44;;;;;;;2.57;1.87;;;5.40;98.00;;;;;;5012649;28;20486;-88
2022/11/03 05:00:16;;;;;;;5.77;2.87;;;5.40;98.00;;;;;;5012403;28;20965;-88
2022/11/03 05:02:44;;;;;;;2.13;1.80;;;5.30;98.00;;;;;;5012501;28;20455;-87
2022/11/03 05:05:26;;;;;;;2.43;1.70;;;5.20;98.00;;;;;;5012927;28;20457;-88
2022/11/03 05:07:55;;;;;;;3.40;2.10;;;5.10;98.00;;;;;;5012938;28;20915;-87
2022/11/03 05:10:25;;;;;;;5.93;2.77;;;5.00;98.00;;;;;;5014482;28;20468;-87
2022/11/03 05:12:54;;;;;;;3.30;2.40;;;5.00;98.00;;;;;;5012356;28;20459;-87
2022/11/03 05:15:30;;;;;;;2.90;1.90;;;4.90;98.00;;;;;;5012788;28;21070;-87
2022/11/03 05:17:59;;;;;;;2.67;1.63;;;4.90;98.00;;;;;;5012881;28;20529;-87
2022/11/03 05:20:34;;;;;;;2.80;1.90;;;4.90;98.00;;;;;;5013331;28;20497;-87
2022/11/03 05:23:02;;;;;;;2.43;1.80;;;5.00;98.00;;;;;;5012338;28;20474;-86
2022/11/03 05:25:38;;;;;;;3.40;2.03;;;5.00;98.00;;;;;;5012595;28;20468;-87
2022/11/03 05:28:20;;;;;;;2.37;1.50;;;4.80;98.00;;;;;;5012772;28;20563;-87
2022/11/03 05:30:49;;;;;;;2.60;1.50;;;4.90;98.00;;;;;;5012524;28;20501;-87
2022/11/03 05:33:26;;;;;;;4.53;2.90;;;4.80;98.00;;;;;;5012203;28;20460;-86
2022/11/03 05:35:58;;;;;;;3.13;1.87;;;4.70;98.00;;;;;;5012575;28;20576;-87
2022/11/03 05:38:29;;;;;;;3.00;1.90;;;4.90;98.00;;;;;;5012801;28;20505;-87
2022/11/03 05:40:56;;;;;;;3.00;2.10;;;4.90;98.00;;;;;;5014047;28;20456;-87
2022/11/03 05:43:23;;;;;;;3.93;2.07;;;4.90;98.00;;;;;;5015534;28;20933;-87
2022/11/03 05:45:53;;;;;;;4.10;2.00;;;4.80;98.00;;;;;;5016475;28;20522;-87
2022/11/03 05:48:30;;;;;;;4.77;2.47;;;4.80;98.00;;;;;;5016314;28;21008;-87
2022/11/03 05:51:00;;;;;;;2.37;2.03;;;4.80;98.00;;;;;;5015991;28;21133;-87
2022/11/03 05:53:30;;;;;;;1.67;1.50;;;4.90;98.00;;;;;;5016009;28;20504;-86
2022/11/03 05:55:59;;;;;;;2.70;1.87;;;5.00;98.00;;;;;;5015961;28;21022;-86
2022/11/03 05:58:30;;;;;;;5.33;2.57;;;5.00;98.00;;;;;;5016117;28;20574;-87
2022/11/03 06:01:01;;;;;;;2.17;2.03;;;5.00;98.00;;;;;;5016355;28;20848;-87
2022/11/03 06:03:30;;;;;;;3.33;1.97;;;5.00;98.00;;;;;;5015326;28;20922;-87
2022/11/03 06:06:01;;;;;;;2.70;1.87;;;5.00;98.00;;;;;;5015852;28;20443;-87
2022/11/03 06:08:34;;;;;;;3.30;2.13;;;5.00;98.00;;;;;;5015550;28;21055;-87
2022/11/03 06:11:03;;;;;;;4.53;2.30;;;5.10;98.00;;;;;;5015744;28;20447;-87
2022/11/03 06:13:34;;;;;;;3.60;2.43;;;5.10;98.00;;;;;;5015418;28;20441;-86
2022/11/03 06:16:04;;;;;;;3.93;2.87;;;5.10;98.00;;;;;;5015646;28;20474;-87
2022/11/03 06:18:34;;;;;;;1.80;1.77;;;5.10;98.00;;;;;;5015977;28;20489;-87
2022/11/03 06:21:08;;;;;;;3.30;1.90;;;5.10;98.00;;;;;;5015677;28;20589;-87
2022/11/03 06:23:36;;;;;;;2.37;1.60;;;5.10;98.00;;;;;;5015312;28;20480;-87
2022/11/03 06:26:08;;;;;;;2.63;1.80;;;5.10;98.00;;;;;;5014854;28;20454;-87
2022/11/03 06:28:37;;;;;;;1.80;1.50;;;4.90;98.00;;;;;;5015399;28;20488;-86
2022/11/03 06:31:07;;;;;;;8.80;1.80;;;4.90;98.00;;;;;;5015549;28;20521;-87
2022/11/03 06:33:35;;;;;;;2.23;2.00;;;5.00;98.00;;;;;;5015375;28;20854;-87
2022/11/03 06:36:11;;;;;;;3.10;1.90;;;5.10;98.00;;;;;;5015184;28;20572;-87
2022/11/03 06:38:38;;;;;;;2.27;1.83;;;5.10;98.00;;;;;;5015240;28;20510;-87
2022/11/03 06:41:10;;;;;;;5.03;2.67;;;5.10;98.00;;;;;;5015603;28;20453;-87
2022/11/03 06:43:41;;;;;;;1.40;1.20;;;5.10;98.00;;;;;;5014083;28;20449;-87
2022/11/03 06:46:15;;;;;;;7.60;2.63;;;5.20;98.00;;;;;;5015807;28;20439;-87
2022/11/03 06:48:42;;;;;;;2.33;1.80;;;5.30;98.00;;;;;;5016153;28;20516;-87
2022/11/03 06:51:16;;;;;;;1.73;1.40;;;5.20;98.00;;;;;;5015401;28;20448;-87
2022/11/03 06:53:43;;;;;;;3.20;1.93;;;5.30;98.00;;;;;;5014608;28;20446;-86
2022/11/03 06:56:15;;;;;;;2.40;1.70;;;5.50;98.00;;;;;;5015015;28;20476;-87
2022/11/03 06:58:43;;;;;;;2.80;1.83;;;5.50;98.00;;;;;;5014849;28;20487;-87
2022/11/03 07:01:15;;;;;;;4.43;2.03;;;5.60;98.00;;;;;;5014837;28;20455;-87
2022/11/03 07:03:42;;;;;;;1.73;1.60;;;5.70;98.00;;;;;;5013671;28;20459;-87
2022/11/03 07:06:20;;;;;;;2.60;1.93;;;5.80;98.00;;;;;;5014942;28;20451;-87
2022/11/03 07:08:50;;;;;;;2.30;1.40;;;5.70;98.00;;;;;;5014619;28;20480;-87
2022/11/03 07:11:20;;;;;;;2.30;1.80;;;5.70;98.00;;;;;;5015036;28;20471;-86
2022/11/03 07:13:48;;;;;;;2.30;1.60;;;5.70;98.00;;;;;;5014502;28;20462;-87
2022/11/03 07:16:21;;;;;;;1.90;1.87;;;5.80;98.00;;;;;;5014926;28;20476;-86
2022/11/03 07:18:49;;;;;;;7.40;1.47;;;5.70;98.00;;;;;;5016074;28;20488;-87
2022/11/03 07:21:33;;;;;;;1.70;1.60;;;5.80;98.00;;;;;;5015559;28;20449;-86
2022/11/03 07:24:02;;;;;;;6.67;2.13;;;5.90;98.00;;;;;;5014776;28;20975;-86
2022/11/03 07:26:29;;;;;;;3.70;2.10;;;6.00;98.00;;;;;;5015332;28;20460;-86
2022/11/03 07:28:56;;;;;;;2.80;1.93;;;6.10;98.00;;;;;;5015098;28;20554;-87
2022/11/03 07:31:26;;;;;;;2.90;2.00;;;6.20;98.00;;;;;;5013841;28;20471;-86
2022/11/03 07:33:58;;;;;;;6.17;1.80;;;6.30;98.00;;;;;;5013517;28;20535;-86
2022/11/03 07:36:31;;;;;;;4.30;2.60;;;6.40;98.00;;;;;;5014324;28;20472;-87
2022/11/03 07:39:01;;;;;;;3.13;1.77;;;6.50;98.00;;;;;;5014466;28;20488;-88
2022/11/03 07:41:32;;;;;;;5.83;2.00;;;6.60;98.00;;;;;;5013967;28;20457;-87
2022/11/03 07:44:01;;;;;;;2.70;1.80;;;6.70;98.00;;;;;;5014928;28;20457;-86
2022/11/03 07:46:29;;;;;;;3.77;2.50;;;6.80;98.00;;;;;;5014336;28;20480;-86
2022/11/03 07:48:57;;;;;;;6.20;2.13;;;6.90;98.00;;;;;;5014045;28;20489;-86
2022/11/03 07:51:28;;;;;;;4.03;2.30;;;7.10;98.00;;;;;;5014860;28;20464;-87
2022/11/03 07:54:03;;;;;;;3.53;1.87;;;7.30;98.00;;;;;;5013229;28;20467;-86
2022/11/03 07:56:35;;;;;;;1.83;1.83;;;7.40;98.00;;;;;;5013080;28;20483;-87
2022/11/03 07:59:10;;;;;;;2.63;1.73;;;7.60;98.00;;;;;;5013232;28;20476;-87
2022/11/03 08:01:45;;;;;;;4.13;2.00;;;7.70;98.00;;;;;;5013439;28;20459;-87
2022/11/03 08:04:17;;;;;;;4.17;1.60;;;7.80;98.00;;;;;;5012483;28;20471;-88
2022/11/03 08:06:45;;;;;;;3.83;1.77;;;8.00;98.00;;;;;;5013786;28;20462;-87
2022/11/03 08:09:14;;;;;;;3.50;2.00;;;8.10;98.00;;;;;;5014153;28;20470;-86
2022/11/03 08:11:41;;;;;;;3.03;2.10;;;8.20;98.00;;;;;;5013788;28;20961;-88
2022/11/03 08:14:09;;;;;;;1.60;1.60;;;8.20;98.00;;;;;;5013622;28;20477;-87
2022/11/03 08:16:38;;;;;;;3.37;2.13;;;8.30;98.00;;;;;;5013398;28;21019;-87
2022/11/03 08:19:10;;;;;;;4.60;2.40;;;8.30;98.00;;;;;;5013973;28;20446;-87
2022/11/03 08:21:37;;;;;;;13.97;2.10;;;8.50;98.00;;;;;;5013903;28;20473;-88
2022/11/03 08:24:06;;;;;;;4.60;2.83;;;8.50;98.00;;;;;;5019527;28;20471;-86
2022/11/03 08:26:35;;;;;;;4.70;2.20;;;8.50;98.00;;;;;;5029908;28;20464;-87
2022/11/03 08:29:06;;;;;;;4.23;2.00;;;8.60;98.00;;;;;;5021911;28;20546;-87
2022/11/03 08:31:33;;;;;;;3.00;2.20;;;8.60;98.00;;;;;;5012976;28;21022;-86
2022/11/03 08:34:02;;;;;;;2.13;1.47;;;8.70;98.00;;;;;;5022527;28;21110;-88
2022/11/03 08:36:31;;;;;;;2.87;1.73;;;8.90;98.00;;;;;;5015409;28;20483;-88
2022/11/03 08:38:58;;;;;;;3.53;1.80;;;9.00;98.00;;;;;;5022728;28;20479;-90
2022/11/03 08:41:48;;;;;;;4.13;2.33;;;9.20;98.00;;;;;;5021665;28;20940;-88
2022/11/03 08:48:06;;;;;;;1.73;1.70;;;9.40;98.00;;;;;;4931421;29;20486;-88
2022/11/03 08:50:33;;;;;;;2.17;1.47;;;11.00;98.00;;;;;;5006362;28;20958;-87
2022/11/03 08:53:00;;;;;;;4.70;2.13;;;11.90;98.00;;;;;;5023167;28;20827;-86
2022/11/03 08:55:27;;;;;;;5.40;1.90;;;12.70;98.00;;;;;;5021058;28;20512;-87
2022/11/03 08:57:55;;;;;;;4.90;2.63;;;13.30;98.00;;;;;;5028616;28;20572;-88
2022/11/03 09:00:22;;;;;;;4.60;2.20;;;13.40;98.00;;;;;;5028773;28;20462;-87
2022/11/03 09:02:52;;;;;;;4.00;2.70;;;13.30;98.00;;;;;;5012149;28;20550;-87
2022/11/03 09:05:20;;;;;;;4.40;2.27;;;13.00;98.00;;;;;;5027345;28;20858;-87
2022/11/03 09:07:49;;;;;;;3.77;2.33;;;12.60;98.00;;;;;;5012394;28;20850;-87
2022/11/03 09:10:16;;;;;;;4.50;2.53;;;12.30;98.00;;;;;;5013695;28;20466;-87
2022/11/03 09:12:44;;;;;;;4.73;2.40;;;12.20;98.00;;;;;;5012691;28;20471;-87
2022/11/03 09:15:12;;;;;;;8.43;2.40;;;12.00;98.00;;;;;;5012905;28;20449;-87
2022/11/03 09:17:39;;;;;;;3.37;2.17;;;11.80;98.00;;;;;;5015803;28;21028;-87
2022/11/03 09:20:08;;;;;;;6.03;2.73;;;11.80;98.00;;;;;;5016418;28;20461;-87
2022/11/03 09:22:35;;;;;;;4.57;2.70;;;11.70;98.00;;;;;;5016026;28;20491;-87
2022/11/03 09:25:03;;;;;;;5.03;2.40;;;11.80;98.00;;;;;;5016268;28;20520;-88
2022/11/03 09:27:31;;;;;;;5.03;1.87;;;11.60;98.00;;;;;;5018071;28;20484;-90
2022/11/03 09:29:58;;;;;;;2.20;1.77;;;11.60;98.00;;;;;;5016567;28;20830;-89
2022/11/03 09:32:25;;;;;;;4.87;2.80;;;11.80;98.00;;;;;;5016676;28;20461;-90
2022/11/03 09:34:52;;;;;;;6.83;2.50;;;12.00;98.00;;;;;;5016318;28;20968;-89
2022/11/03 09:37:22;;;;;;;6.33;2.30;;;12.00;98.00;;;;;;5016840;28;20496;-89
2022/11/03 09:39:49;;;;;;;4.60;2.50;;;12.10;98.00;;;;;;5016553;28;20876;-89
2022/11/03 09:42:17;;;;;;;3.10;2.10;;;12.10;98.00;;;;;;5023248;28;20452;-89
2022/11/03 09:44:46;;;;;;;4.70;2.40;;;12.10;98.00;;;;;;5038321;28;20513;-92
2022/11/03 09:47:22;;;;;;;5.20;2.70;;;12.40;98.00;;;;;;5023037;28;20483;-90
2022/11/03 09:49:50;;;;;;;4.67;2.33;;;12.50;98.00;;;;;;5016296;28;20458;-89
2022/11/03 09:52:23;;;;;;;4.73;2.57;;;12.60;98.00;;;;;;5015587;28;20459;-89
2022/11/03 09:54:54;;;;;;;4.60;2.70;;;12.60;98.00;;;;;;5016074;28;20516;-89
2022/11/03 09:57:21;;;;;;;4.10;2.47;;;12.50;98.00;;;;;;5016032;28;20484;-89
2022/11/03 09:59:51;;;;;;;4.67;2.50;;;12.50;98.00;;;;;;5016157;28;20935;-90
2022/11/03 10:02:25;;;;;;;5.10;2.60;;;12.60;98.00;;;;;;5015991;28;20556;-89
2022/11/03 10:04:53;;;;;;;2.93;2.33;;;12.70;98.00;;;;;;5015907;28;20573;-89
2022/11/03 10:07:24;;;;;;;4.77;2.60;;;12.80;98.00;;;;;;5016609;28;20984;-89
2022/11/03 10:09:53;;;;;;;9.13;3.30;;;12.90;98.00;;;;;;5016142;28;20454;-89
2022/11/03 10:12:22;;;;;;;7.23;2.87;;;12.90;98.00;;;;;;5016893;28;20555;-89
2022/11/03 10:14:50;;;;;;;5.90;2.83;;;12.90;98.00;;;;;;5015643;28;20481;-89
2022/11/03 10:17:20;;;;;;;4.63;2.80;;;12.90;98.00;;;;;;5015796;28;20492;-89
2022/11/03 10:19:49;;;;;;;4.53;2.70;;;13.00;98.00;;;;;;5015787;28;20514;-89
2022/11/03 10:22:16;;;;;;;13.00;3.07;;;13.00;98.00;;;;;;5015858;28;20547;-90
2022/11/03 10:24:45;;;;;;;7.10;2.60;;;13.00;98.00;;;;;;5015714;28;20472;-89
2022/11/03 10:27:24;;;;;;;4.87;2.60;;;13.20;98.00;;;;;;5014424;28;20483;-89
2022/11/03 10:30:09;;;;;;;8.13;2.90;;;13.30;98.00;;;;;;5015581;28;20462;-90
2022/11/03 10:32:37;;;;;;;3.60;2.67;;;13.40;98.00;;;;;;5015735;28;20965;-89
2022/11/03 10:35:34;;;;;;;4.40;2.40;;;13.30;98.00;;;;;;5016091;28;20460;-89
2022/11/03 10:38:32;;;;;;;5.33;2.80;;;13.50;98.00;;;;;;5015540;28;20944;-90
2022/11/03 10:41:12;;;;;;;7.43;2.80;;;13.50;98.00;;;;;;5015136;28;20453;-89
2022/11/03 10:43:41;;;;;;;6.10;2.70;;;13.60;98.00;;;;;;5015698;28;20527;-89
2022/11/03 10:46:20;;;;;;;3.50;2.30;;;13.60;98.00;;;;;;5015313;28;20454;-89
2022/11/03 10:49:05;;;;;;;3.30;2.43;;;13.80;98.00;;;;;;5015299;28;20486;-89
2022/11/03 10:51:33;;;;;;;5.00;2.73;;;13.80;98.00;;;;;;5015465;28;20446;-90
2022/11/03 10:54:01;;;;;;;4.00;2.30;;;13.80;98.00;;;;;;5015456;28;21035;-90
2022/11/03 10:56:31;;;;;;;3.00;2.43;;;13.80;98.00;;;;;;5014515;28;20505;-91
2022/11/03 10:59:00;;;;;;;4.23;2.57;;;13.70;98.00;;;;;;5014165;28;20493;-89
2022/11/03 11:01:28;;;;;;;5.30;2.77;;;13.80;98.00;;;;;;5014325;28;20540;-90
2022/11/03 11:03:55;;;;;;;2.73;1.90;;;13.90;98.00;;;;;;5013892;28;20468;-90
2022/11/03 11:06:25;;;;;;;5.07;2.30;;;14.00;98.00;;;;;;5015322;28;20538;-90
2022/11/03 11:08:56;;;;;;;5.63;2.53;;;14.20;98.00;;;;;;5014640;28;21017;-89
2022/11/03 11:11:24;;;;;;;4.43;2.23;;;14.30;98.00;;;;;;5014964;28;20495;-89
2022/11/03 11:14:23;;;;;;;5.13;2.17;;;14.40;98.00;;;;;;5014023;28;20458;-89
2022/11/03 11:16:52;;;;;;;3.47;2.30;;;14.50;98.00;;;;;;5013149;28;20540;-89
2022/11/03 11:19:21;;;;;;;3.67;2.20;;;14.60;98.00;;;;;;5014508;28;20466;-90
2022/11/03 11:22:00;;;;;;;3.70;2.17;;;14.70;98.00;;;;;;5015260;28;20501;-89
2022/11/03 11:25:02;;;;;;;2.90;2.17;;;14.80;98.00;;;;;;5015056;28;20489;-90
2022/11/03 11:27:55;;;;;;;4.30;2.30;;;14.80;98.00;;;;;;5015679;28;20482;-91
2022/11/03 11:31:02;;;;;;;3.60;2.20;;;14.80;98.00;;;;;;5015308;28;20480;-89
2022/11/03 11:33:33;;;;;;;4.80;2.50;;;14.80;98.00;;;;;;5014604;28;20532;-89
2022/11/03 11:36:23;;;;;;;4.30;2.50;;;14.70;98.00;;;;;;5014727;28;20885;-89
2022/11/03 11:39:00;;;;;;;4.57;2.40;;;14.70;98.00;;;;;;5014122;28;20828;-89
2022/11/03 11:42:04;;;;;;;6.00;2.87;;;14.60;98.00;;;;;;5014606;28;20468;-89
2022/11/03 11:44:52;;;;;;;4.97;2.60;;;14.60;98.00;;;;;;5015190;28;20931;-89
2022/11/03 11:47:23;;;;;;;4.00;2.40;;;14.50;98.00;;;;;;5013855;28;20487;-90
2022/11/03 11:50:22;;;;;;;4.27;2.80;;;14.50;98.00;;;;;;5014894;28;20474;-91
2022/11/03 11:52:56;;;;;;;4.87;2.57;;;14.60;98.00;;;;;;5014325;28;20829;-89
2022/11/03 11:55:32;;;;;;;2.17;1.80;;;14.60;98.00;;;;;;5014100;28;20891;-89
2022/11/03 11:58:03;;;;;;;3.20;2.07;;;14.60;98.00;;;;;;5013870;28;20486;-89
2022/11/03 12:00:33;;;;;;;5.73;2.63;;;14.70;98.00;;;;;;5015477;28;20481;-89
2022/11/03 12:03:03;;;;;;;4.10;2.80;;;14.80;98.00;;;;;;5013124;28;20470;-90
2022/11/03 12:05:34;;;;;;;5.90;3.17;;;14.90;98.00;;;;;;5013288;28;20967;-89
2022/11/03 12:08:02;;;;;;;5.63;2.53;;;14.80;98.00;;;;;;5013461;28;20486;-89
2022/11/03 12:10:31;;;;;;;4.40;2.70;;;14.70;98.00;;;;;;5013815;28;20472;-89
2022/11/03 12:13:00;;;;;;;5.17;2.50;;;14.70;98.00;;;;;;5013672;28;20451;-90
2022/11/03 12:15:50;;;;;;;3.70;1.97;;;14.70;98.00;;;;;;5013436;28;20467;-89
2022/11/03 12:18:35;;;;;;;4.63;2.70;;;14.70;98.00;;;;;;5013126;28;20486;-89
2022/11/03 12:21:05;;;;;;;4.57;2.50;;;14.80;98.00;;;;;;5013168;28;20524;-89
2022/11/03 12:23:33;;;;;;;6.87;2.60;;;15.00;98.00;;;;;;5012988;28;20459;-89
2022/11/03 12:26:01;;;;;;;5.13;2.83;;;15.00;98.00;;;;;;5013616;28;20451;-89
2022/11/03 12:28:32;;;;;;;3.43;2.17;;;15.10;98.00;;;;;;5013175;28;20484;-90
2022/11/03 12:30:59;;;;;;;5.00;2.50;;;15.00;98.00;;;;;;5013386;28;20449;-88
2022/11/03 12:33:28;;;;;;;2.40;1.67;;;14.80;98.00;;;;;;5012971;28;20500;-89
2022/11/03 12:35:55;;;;;;;3.90;2.40;;;14.80;98.00;;;;;;5013269;28;20498;-89
2022/11/03 12:38:24;;;;;;;3.40;2.20;;;14.80;98.00;;;;;;5012998;28;20504;-90
2022/11/03 12:40:53;;;;;;;3.63;2.23;;;14.80;98.00;;;;;;5012430;28;20470;-90
2022/11/03 12:43:20;;;;;;;4.83;2.37;;;14.80;98.00;;;;;;5013395;28;20514;-90
2022/11/03 12:45:47;;;;;;;7.47;2.67;;;14.70;98.00;;;;;;5013914;28;20470;-89
2022/11/03 12:48:14;;;;;;;3.67;2.10;;;14.70;98.00;;;;;;5013656;28;20541;-89
2022/11/03 12:50:41;;;;;;;3.77;2.20;;;14.60;98.00;;;;;;5017290;28;20970;-89
2022/11/03 12:53:09;;;;;;;4.90;2.30;;;14.60;98.00;;;;;;5019328;28;20457;-90
2022/11/03 12:55:37;;;;;;;3.13;2.10;;;14.70;98.00;;;;;;5019001;28;20463;-89
2022/11/03 12:58:04;;;;;;;4.57;2.73;;;14.70;98.00;;;;;;5019059;28;20483;-89
2022/11/03 13:00:31;;;;;;;6.30;2.70;;;14.80;98.00;;;;;;5019845;28;20946;-89
2022/11/03 13:02:58;;;;;;;3.90;2.40;;;14.70;98.00;;;;;;5019624;28;20472;-91
2022/11/03 13:05:26;;;;;;;4.97;2.67;;;14.70;98.00;;;;;;5019645;28;20473;-89
2022/11/03 13:07:53;;;;;;;5.50;2.60;;;14.60;98.00;;;;;;5019237;28;20488;-89
2022/11/03 13:10:30;;;;;;;4.30;2.50;;;14.50;98.00;;;;;;5020395;28;20469;-90
2022/11/03 13:12:59;;;;;;;4.90;1.90;;;14.50;98.00;;;;;;5021912;28;20831;-89
2022/11/03 13:15:32;;;;;;;3.70;2.33;;;14.50;98.00;;;;;;5022633;28;20468;-89
2022/11/03 13:18:00;;;;;;;3.33;2.00;;;14.50;98.00;;;;;;5023514;28;20487;-91
2022/11/03 13:24:42;;;;;;;4.43;2.10;;;14.50;98.00;;;;;;5022941;28;20405;-89
2022/11/03 13:27:37;;;;;;;3.57;2.47;;;14.70;98.00;;;;;;5005084;28;20471;-89
2022/11/03 13:30:10;;;;;;;6.73;2.73;;;14.80;98.00;;;;;;5014668;28;20545;-89
2022/11/03 13:33:05;;;;;;;5.87;2.60;;;14.80;98.00;;;;;;5022663;28;20462;-90
2022/11/03 13:35:38;;;;;;;4.63;2.50;;;14.90;98.00;;;;;;5015457;28;20460;-90
2022/11/03 13:38:05;;;;;;;2.80;2.10;;;14.70;98.00;;;;;;5047668;23;20493;-63
2022/11/03 13:40:32;;;;;;;21.67;2.60;;;14.60;98.00;;;;;;5057520;28;20451;-63
2022/11/03 13:43:00;;;;;;;3.80;2.17;;;14.50;98.00;;;;;;5056112;28;20457;-63